Weather reports worldwide

Advertisment
Menorca Airport, Spain (2008314): temperature & dewpoint: 15.05.2019 17:00:00 - 21.05.2019 17:00:00 (CEST)Menorca Airport, Spain (2008314): wind speed: 15.05.2019 17:00:00 - 21.05.2019 17:00:00 (CEST)Menorca Airport, Spain (2008314): wind direction: 15.05.2019 17:00:00 - 21.05.2019 17:00:00 (CEST)Menorca Airport, Spain (2008314): visibility: 15.05.2019 17:00:00 - 21.05.2019 17:00:00 (CEST)
Date & Time tt [°C] td [°C] ff [km/h] ff [kn] dd vv [km]
21.05.2019 17:00:00 21,0 10,0 15 8 SSE 10
21.05.2019 16:00:00 21,0 10,0 16 9 S 10
21.05.2019 15:00:00 22,0 9,0 15 8 SSE 10
21.05.2019 14:00:00 21,0 7,0 16 9 SSE 10
21.05.2019 13:00:00 22,0 8,0 15 8 SSE 10
21.05.2019 12:00:00 22,0 7,0 13 7 ESE 10
21.05.2019 11:00:00 20,0 13,0 11 6 S 10
21.05.2019 10:00:00 20,0 9,0 5 3 - 10
21.05.2019 09:00:00 18,0 9,0 4 2 - 10
21.05.2019 08:00:00 15,0 13,0 4 2 - 10
21.05.2019 07:00:00 11,0 11,0 8 4 SW 10
21.05.2019 06:00:00 11,0 10,0 5 3 W 10
21.05.2019 05:00:00 10,0 9,0 9 5 WSW 10
21.05.2019 04:00:00 12,0 11,0 0 0 N 10
21.05.2019 03:00:00 12,0 10,0 9 5 NNE 10
21.05.2019 02:00:00 13,0 11,0 8 4 NE 10
21.05.2019 01:00:00 12,0 10,0 9 5 N 10
21.05.2019 00:00:00 12,0 10,0 8 4 NNE 10
20.05.2019 23:00:00 15,0 11,0 4 2 NE 10
20.05.2019 22:00:00 15,0 12,0 4 2 E 10
20.05.2019 21:00:00 16,0 11,0 2 1 - 10
20.05.2019 20:00:00 18,0 10,0 9 5 WSW 10
20.05.2019 19:00:00 19,0 10,0 9 5 WSW 10
20.05.2019 18:00:00 20,0 9,0 11 6 W 10
20.05.2019 17:00:00 20,0 8,0 18 10 WSW 10
20.05.2019 16:00:00 20,0 9,0 18 10 W 10
20.05.2019 15:00:00 20,0 9,0 18 10 SW 10
20.05.2019 14:00:00 20,0 10,0 11 6 - 10
20.05.2019 13:00:00 19,0 9,0 13 7 WSW 10
20.05.2019 12:00:00 19,0 11,0 15 8 WSW 10
20.05.2019 11:00:00 18,0 11,0 16 9 W 10
20.05.2019 10:00:00 16,0 13,0 11 6 W 10
20.05.2019 09:00:00 17,0 14,0 13 7 SW 10
20.05.2019 08:00:00 15,0 12,0 4 2 - 10
20.05.2019 07:00:00 12,0 10,0 5 3 W 10
20.05.2019 06:00:00 12,0 10,0 5 3 W 10
20.05.2019 05:00:00 12,0 9,0 8 4 SW 10
20.05.2019 04:00:00 10,0 7,0 8 4 WSW 10
20.05.2019 03:00:00 10,0 7,0 8 4 W 10
20.05.2019 02:00:00 11,0 8,0 8 4 NW 10
20.05.2019 01:00:00 11,0 8,0 8 4 WNW 10
20.05.2019 00:00:00 11,0 8,0 9 5 WNW 10
19.05.2019 23:00:00 12,0 9,0 8 4 WNW 10
19.05.2019 22:00:00 13,0 9,0 5 3 NW 10
19.05.2019 21:00:00 14,0 9,0 11 6 N 10
19.05.2019 20:00:00 15,0 8,0 15 8 NW 10
19.05.2019 19:00:00 17,0 8,0 15 8 WNW 10
19.05.2019 18:00:00 17,0 9,0 22 12 W 10
19.05.2019 17:00:00 17,0 8,0 24 13 W 10
19.05.2019 16:00:00 19,0 8,0 26 14 W 10
19.05.2019 15:00:00 19,0 7,0 24 13 W 10
19.05.2019 14:00:00 19,0 8,0 28 15 W 10
19.05.2019 13:00:00 17,0 9,0 28 15 W 10
19.05.2019 12:00:00 17,0 9,0 28 15 W 10
19.05.2019 11:00:00 17,0 10,0 26 14 W 10
19.05.2019 10:00:00 17,0 10,0 22 12 W 10
19.05.2019 09:00:00 16,0 10,0 22 12 W 10
19.05.2019 08:00:00 15,0 11,0 11 6 W 10
19.05.2019 07:00:00 11,0 9,0 9 5 W 10
19.05.2019 06:00:00 11,0 9,0 8 4 W 10
19.05.2019 05:00:00 11,0 9,0 5 3 W 10
19.05.2019 04:00:00 11,0 9,0 8 4 W 10
19.05.2019 03:00:00 12,0 9,0 8 4 WNW 10
19.05.2019 02:00:00 12,0 10,0 5 3 WNW 10
19.05.2019 01:00:00 14,0 12,0 4 2 - 10
19.05.2019 00:00:00 14,0 12,0 8 4 SW 10
18.05.2019 23:00:00 14,0 12,0 8 4 SSW 10
18.05.2019 22:00:00 14,0 12,0 8 4 SSW 10
18.05.2019 21:00:00 15,0 11,0 11 6 S 10
18.05.2019 20:00:00 16,0 11,0 18 10 S 10
18.05.2019 19:00:00 16,0 11,0 16 9 S 10
18.05.2019 18:00:00 17,0 12,0 16 9 S 10
18.05.2019 17:00:00 17,0 11,0 16 9 SSW 10
18.05.2019 16:00:00 18,0 12,0 13 7 S 10
18.05.2019 15:00:00 17,0 11,0 11 6 S 10
18.05.2019 14:00:00 17,0 11,0 16 9 SSW 10
18.05.2019 13:00:00 16,0 10,0 11 6 NE 10
18.05.2019 12:00:00 16,0 11,0 2 1 W 10
18.05.2019 11:00:00 17,0 11,0 11 6 NNE 10
18.05.2019 10:00:00 16,0 10,0 8 4 NNW 10
18.05.2019 09:00:00 15,0 9,0 8 4 NNE 10
18.05.2019 08:00:00 14,0 10,0 0 0 N 10
18.05.2019 07:00:00 13,0 11,0 0 0 N 10
18.05.2019 06:00:00 12,0 11,0 5 3 NW 10
18.05.2019 05:00:00 12,0 11,0 5 3 WNW 10
18.05.2019 04:00:00 13,0 12,0 8 4 NW 10
18.05.2019 03:00:00 12,0 11,0 8 4 WNW 10
18.05.2019 02:00:00 13,0 11,0 9 5 N 10
18.05.2019 01:00:00 13,0 11,0 13 7 NNW 10
18.05.2019 00:00:00 14,0 12,0 13 7 NW 10
17.05.2019 23:00:00 15,0 12,0 13 7 NW 10
17.05.2019 22:00:00 15,0 12,0 13 7 WNW 10
17.05.2019 21:00:00 15,0 12,0 16 9 WNW 10
17.05.2019 20:00:00 16,0 12,0 24 13 NW 10
17.05.2019 19:00:00 16,0 13,0 29 16 NW 10
17.05.2019 18:00:00 17,0 13,0 34 18 W 10
17.05.2019 17:00:00 17,0 11,0 35 19 W 10
17.05.2019 16:00:00 17,0 11,0 39 21 W 10
17.05.2019 15:00:00 17,0 12,0 48 26 W 10
17.05.2019 14:00:00 20,0 15,0 22 12 S 10
17.05.2019 13:00:00 19,0 16,0 21 11 SSW 10
17.05.2019 12:00:00 17,0 15,0 16 9 S 10
17.05.2019 11:00:00 17,0 14,0 21 11 S 10
17.05.2019 10:00:00 16,0 14,0 22 12 SE 10
17.05.2019 09:00:00 16,0 13,0 26 14 SE 10
17.05.2019 08:00:00 15,0 13,0 24 13 SE 10
17.05.2019 07:00:00 15,0 12,0 18 10 SE 10
17.05.2019 06:00:00 14,0 12,0 18 10 SE 10
17.05.2019 05:00:00 14,0 11,0 16 9 SE 10
17.05.2019 04:00:00 14,0 11,0 16 9 SE 10
17.05.2019 03:00:00 14,0 10,0 16 9 SE 10
17.05.2019 02:00:00 14,0 10,0 18 10 SE 10
17.05.2019 01:00:00 14,0 10,0 16 9 SE 10
17.05.2019 00:00:00 14,0 10,0 18 10 SE 10
16.05.2019 23:00:00 14,0 10,0 18 10 SE 10
16.05.2019 22:00:00 15,0 11,0 16 9 SSE 10
16.05.2019 21:00:00 15,0 10,0 18 10 SSE 10
16.05.2019 20:00:00 16,0 11,0 22 12 SSE 10
16.05.2019 19:00:00 16,0 10,0 21 11 SSE 10
16.05.2019 18:00:00 17,0 10,0 21 11 S 10
16.05.2019 17:00:00 18,0 10,0 22 12 S 10
16.05.2019 16:00:00 18,0 11,0 18 10 S 10
16.05.2019 15:00:00 18,0 10,0 18 10 S 10
16.05.2019 14:00:00 17,0 10,0 18 10 S 10
16.05.2019 13:00:00 17,0 9,0 16 9 S 10
16.05.2019 12:00:00 17,0 9,0 15 8 S 10
16.05.2019 11:00:00 16,0 9,0 13 7 S 10
16.05.2019 10:00:00 16,0 7,0 8 4 S 10
16.05.2019 09:00:00 15,0 8,0 4 2 - 10
16.05.2019 08:00:00 13,0 10,0 4 2 N 10
16.05.2019 07:00:00 8,0 6,0 8 4 WNW 10
16.05.2019 06:00:00 8,0 6,0 2 1 WNW 10
16.05.2019 05:00:00 9,0 7,0 0 0 N 10
16.05.2019 04:00:00 8,0 6,0 0 0 N 10
16.05.2019 03:00:00 9,0 6,0 4 2 - 10
16.05.2019 02:00:00 9,0 7,0 0 0 N 10
16.05.2019 01:00:00 11,0 8,0 4 2 ENE 10
16.05.2019 00:00:00 12,0 8,0 9 5 ENE 10
15.05.2019 23:00:00 13,0 9,0 5 3 E 10
15.05.2019 22:00:00 13,0 10,0 8 4 ENE 10
15.05.2019 21:00:00 14,0 10,0 15 8 ENE 10
15.05.2019 20:00:00 15,0 11,0 22 12 NE 10
15.05.2019 19:00:00 16,0 10,0 24 13 NE 10
15.05.2019 18:00:00 17,0 9,0 28 15 NNE 10
15.05.2019 17:00:00 18,0 10,0 28 15 NE 10

tt = temperature
td = dewpoint
ff = wind speed
dd = wind direction
vv = visibility

Next stations